sensor_id;sensor_type;location;lat;lon;timestamp;P1;durP1;ratioP1;P2;durP2;ratioP2
74967;SDS011;63523;51.880;12.630;2023-05-10T00:00:08;5.37;;;2.03;;
74967;SDS011;63523;51.880;12.630;2023-05-10T00:02:34;5.40;;;2.20;;
74967;SDS011;63523;51.880;12.630;2023-05-10T00:04:59;5.07;;;2.17;;
74967;SDS011;63523;51.880;12.630;2023-05-10T00:07:25;5.20;;;2.10;;
74967;SDS011;63523;51.880;12.630;2023-05-10T00:09:50;5.20;;;2.10;;
74967;SDS011;63523;51.880;12.630;2023-05-10T00:12:16;5.90;;;2.30;;
74967;SDS011;63523;51.880;12.630;2023-05-10T00:14:41;6.13;;;2.20;;
74967;SDS011;63523;51.880;12.630;2023-05-10T00:17:07;5.07;;;2.30;;
74967;SDS011;63523;51.880;12.630;2023-05-10T00:19:32;9.13;;;2.60;;
74967;SDS011;63523;51.880;12.630;2023-05-10T00:21:57;5.40;;;2.70;;
74967;SDS011;63523;51.880;12.630;2023-05-10T00:24:22;5.60;;;2.40;;
74967;SDS011;63523;51.880;12.630;2023-05-10T00:26:48;5.13;;;2.03;;
74967;SDS011;63523;51.880;12.630;2023-05-10T00:29:13;6.10;;;2.30;;
74967;SDS011;63523;51.880;12.630;2023-05-10T00:31:38;5.10;;;2.50;;
74967;SDS011;63523;51.880;12.630;2023-05-10T00:34:03;7.73;;;2.00;;
74967;SDS011;63523;51.880;12.630;2023-05-10T00:36:29;8.27;;;2.40;;
74967;SDS011;63523;51.880;12.630;2023-05-10T00:38:56;6.65;;;2.40;;
74967;SDS011;63523;51.880;12.630;2023-05-10T00:41:21;6.10;;;2.90;;
74967;SDS011;63523;51.880;12.630;2023-05-10T00:43:46;5.67;;;2.60;;
74967;SDS011;63523;51.880;12.630;2023-05-10T00:46:12;5.33;;;2.47;;
74967;SDS011;63523;51.880;12.630;2023-05-10T00:48:39;5.03;;;2.25;;
74967;SDS011;63523;51.880;12.630;2023-05-10T00:51:04;7.33;;;2.50;;
74967;SDS011;63523;51.880;12.630;2023-05-10T00:53:30;5.70;;;2.20;;
74967;SDS011;63523;51.880;12.630;2023-05-10T00:55:56;6.57;;;2.72;;
74967;SDS011;63523;51.880;12.630;2023-05-10T00:58:21;4.70;;;2.23;;
74967;SDS011;63523;51.880;12.630;2023-05-10T01:00:48;6.22;;;2.60;;
74967;SDS011;63523;51.880;12.630;2023-05-10T01:03:15;5.72;;;2.50;;
74967;SDS011;63523;51.880;12.630;2023-05-10T01:05:40;6.33;;;2.47;;
74967;SDS011;63523;51.880;12.630;2023-05-10T01:08:05;7.20;;;2.60;;
74967;SDS011;63523;51.880;12.630;2023-05-10T01:10:31;5.93;;;2.40;;
74967;SDS011;63523;51.880;12.630;2023-05-10T01:12:56;4.90;;;2.00;;
74967;SDS011;63523;51.880;12.630;2023-05-10T01:15:24;6.88;;;2.58;;
74967;SDS011;63523;51.880;12.630;2023-05-10T01:17:49;6.47;;;2.70;;
74967;SDS011;63523;51.880;12.630;2023-05-10T01:20:14;8.53;;;2.53;;
74967;SDS011;63523;51.880;12.630;2023-05-10T01:31:58;6.47;;;2.60;;
74967;SDS011;63523;51.880;12.630;2023-05-10T01:34:54;5.75;;;2.22;;
74967;SDS011;63523;51.880;12.630;2023-05-10T01:37:33;6.63;;;2.90;;
74967;SDS011;63523;51.880;12.630;2023-05-10T01:43:11;6.68;;;2.60;;
74967;SDS011;63523;51.880;12.630;2023-05-10T01:45:47;5.72;;;2.45;;
74967;SDS011;63523;51.880;12.630;2023-05-10T01:48:24;5.55;;;2.35;;
74967;SDS011;63523;51.880;12.630;2023-05-10T01:50:52;6.97;;;2.67;;
74967;SDS011;63523;51.880;12.630;2023-05-10T01:53:18;5.93;;;2.42;;
74967;SDS011;63523;51.880;12.630;2023-05-10T01:55:46;5.90;;;2.20;;
74967;SDS011;63523;51.880;12.630;2023-05-10T01:58:17;7.57;;;2.67;;
74967;SDS011;63523;51.880;12.630;2023-05-10T02:00:46;8.05;;;2.40;;
74967;SDS011;63523;51.880;12.630;2023-05-10T02:03:13;6.07;;;2.40;;
74967;SDS011;63523;51.880;12.630;2023-05-10T02:05:41;7.70;;;2.47;;
74967;SDS011;63523;51.880;12.630;2023-05-10T02:08:10;5.90;;;2.55;;
74967;SDS011;63523;51.880;12.630;2023-05-10T02:10:37;5.18;;;2.15;;
74967;SDS011;63523;51.880;12.630;2023-05-10T02:13:05;5.38;;;2.40;;
74967;SDS011;63523;51.880;12.630;2023-05-10T02:15:32;6.77;;;2.67;;
74967;SDS011;63523;51.880;12.630;2023-05-10T02:17:58;5.43;;;2.47;;
74967;SDS011;63523;51.880;12.630;2023-05-10T02:20:25;5.45;;;2.30;;
74967;SDS011;63523;51.880;12.630;2023-05-10T02:22:52;7.60;;;2.30;;
74967;SDS011;63523;51.880;12.630;2023-05-10T02:25:19;5.20;;;2.33;;
74967;SDS011;63523;51.880;12.630;2023-05-10T02:27:46;6.30;;;2.33;;
74967;SDS011;63523;51.880;12.630;2023-05-10T02:30:13;7.28;;;2.50;;
74967;SDS011;63523;51.880;12.630;2023-05-10T02:32:39;7.50;;;2.45;;
74967;SDS011;63523;51.880;12.630;2023-05-10T02:35:05;5.80;;;2.10;;
74967;SDS011;63523;51.880;12.630;2023-05-10T02:37:33;5.50;;;2.35;;
74967;SDS011;63523;51.880;12.630;2023-05-10T02:40:00;4.97;;;2.07;;
74967;SDS011;63523;51.880;12.630;2023-05-10T02:42:28;5.68;;;2.17;;
74967;SDS011;63523;51.880;12.630;2023-05-10T02:44:56;5.80;;;2.17;;
74967;SDS011;63523;51.880;12.630;2023-05-10T02:47:25;5.22;;;2.00;;
74967;SDS011;63523;51.880;12.630;2023-05-10T02:49:51;6.53;;;2.38;;
74967;SDS011;63523;51.880;12.630;2023-05-10T02:52:25;6.60;;;2.00;;
74967;SDS011;63523;51.880;12.630;2023-05-10T02:54:58;6.07;;;2.40;;
74967;SDS011;63523;51.880;12.630;2023-05-10T02:57:28;6.37;;;2.50;;
74967;SDS011;63523;51.880;12.630;2023-05-10T02:59:58;5.53;;;2.22;;
74967;SDS011;63523;51.880;12.630;2023-05-10T03:02:25;4.95;;;2.20;;
74967;SDS011;63523;51.880;12.630;2023-05-10T03:04:51;6.28;;;3.25;;
74967;SDS011;63523;51.880;12.630;2023-05-10T03:07:16;5.60;;;2.37;;
74967;SDS011;63523;51.880;12.630;2023-05-10T03:10:01;7.28;;;2.30;;
74967;SDS011;63523;51.880;12.630;2023-05-10T03:20:31;5.50;;;2.00;;
74967;SDS011;63523;51.880;12.630;2023-05-10T03:26:26;5.85;;;2.10;;
74967;SDS011;63523;51.880;12.630;2023-05-10T03:28:53;5.27;;;2.23;;
74967;SDS011;63523;51.880;12.630;2023-05-10T03:31:19;5.93;;;1.88;;
74967;SDS011;63523;51.880;12.630;2023-05-10T03:33:47;7.67;;;2.20;;
74967;SDS011;63523;51.880;12.630;2023-05-10T03:36:13;6.40;;;2.53;;
74967;SDS011;63523;51.880;12.630;2023-05-10T03:38:39;6.73;;;2.33;;
74967;SDS011;63523;51.880;12.630;2023-05-10T03:41:04;6.13;;;2.43;;
74967;SDS011;63523;51.880;12.630;2023-05-10T03:43:29;6.20;;;2.37;;
74967;SDS011;63523;51.880;12.630;2023-05-10T03:45:54;7.13;;;3.00;;
74967;SDS011;63523;51.880;12.630;2023-05-10T03:48:20;6.57;;;2.40;;
74967;SDS011;63523;51.880;12.630;2023-05-10T03:50:45;6.90;;;2.10;;
74967;SDS011;63523;51.880;12.630;2023-05-10T03:53:10;4.53;;;1.70;;
74967;SDS011;63523;51.880;12.630;2023-05-10T03:55:36;5.23;;;2.03;;
74967;SDS011;63523;51.880;12.630;2023-05-10T03:58:01;7.23;;;2.00;;
74967;SDS011;63523;51.880;12.630;2023-05-10T04:00:26;6.57;;;2.00;;
74967;SDS011;63523;51.880;12.630;2023-05-10T04:02:52;6.33;;;2.03;;
74967;SDS011;63523;51.880;12.630;2023-05-10T04:05:17;4.57;;;1.87;;
74967;SDS011;63523;51.880;12.630;2023-05-10T04:07:42;5.23;;;1.80;;
74967;SDS011;63523;51.880;12.630;2023-05-10T04:10:09;4.72;;;2.03;;
74967;SDS011;63523;51.880;12.630;2023-05-10T04:12:34;5.27;;;1.90;;
74967;SDS011;63523;51.880;12.630;2023-05-10T04:14:59;6.67;;;1.90;;
74967;SDS011;63523;51.880;12.630;2023-05-10T04:17:25;4.80;;;2.00;;
74967;SDS011;63523;51.880;12.630;2023-05-10T04:19:50;5.20;;;1.90;;
74967;SDS011;63523;51.880;12.630;2023-05-10T04:22:17;4.97;;;1.90;;
74967;SDS011;63523;51.880;12.630;2023-05-10T04:24:43;6.73;;;1.80;;
74967;SDS011;63523;51.880;12.630;2023-05-10T04:27:08;4.87;;;1.93;;
74967;SDS011;63523;51.880;12.630;2023-05-10T04:29:33;6.20;;;2.00;;
74967;SDS011;63523;51.880;12.630;2023-05-10T04:31:58;5.10;;;1.70;;
74967;SDS011;63523;51.880;12.630;2023-05-10T04:34:24;7.87;;;1.97;;
74967;SDS011;63523;51.880;12.630;2023-05-10T04:36:49;7.20;;;1.90;;
74967;SDS011;63523;51.880;12.630;2023-05-10T04:39:15;4.87;;;1.90;;
74967;SDS011;63523;51.880;12.630;2023-05-10T04:41:40;4.20;;;1.70;;
74967;SDS011;63523;51.880;12.630;2023-05-10T04:44:05;4.53;;;1.80;;
74967;SDS011;63523;51.880;12.630;2023-05-10T04:46:31;4.90;;;1.63;;
74967;SDS011;63523;51.880;12.630;2023-05-10T04:48:56;5.27;;;1.97;;
74967;SDS011;63523;51.880;12.630;2023-05-10T04:51:21;5.17;;;1.60;;
74967;SDS011;63523;51.880;12.630;2023-05-10T04:53:46;5.37;;;1.53;;
74967;SDS011;63523;51.880;12.630;2023-05-10T04:56:12;3.70;;;1.40;;
74967;SDS011;63523;51.880;12.630;2023-05-10T04:58:37;4.10;;;1.60;;
74967;SDS011;63523;51.880;12.630;2023-05-10T05:01:08;5.87;;;2.00;;
74967;SDS011;63523;51.880;12.630;2023-05-10T05:03:35;4.30;;;1.63;;
74967;SDS011;63523;51.880;12.630;2023-05-10T05:06:01;4.63;;;1.53;;
74967;SDS011;63523;51.880;12.630;2023-05-10T05:08:26;4.13;;;1.50;;
74967;SDS011;63523;51.880;12.630;2023-05-10T05:10:51;4.03;;;1.57;;
74967;SDS011;63523;51.880;12.630;2023-05-10T05:13:17;4.40;;;1.40;;
74967;SDS011;63523;51.880;12.630;2023-05-10T05:15:42;4.30;;;1.40;;
74967;SDS011;63523;51.880;12.630;2023-05-10T05:18:07;3.87;;;1.20;;
74967;SDS011;63523;51.880;12.630;2023-05-10T05:20:33;4.57;;;1.50;;
74967;SDS011;63523;51.880;12.630;2023-05-10T05:22:59;5.18;;;1.88;;
74967;SDS011;63523;51.880;12.630;2023-05-10T05:25:24;3.77;;;1.20;;
74967;SDS011;63523;51.880;12.630;2023-05-10T05:27:49;6.23;;;1.50;;
74967;SDS011;63523;51.880;12.630;2023-05-10T05:30:15;11.70;;;1.43;;
74967;SDS011;63523;51.880;12.630;2023-05-10T05:32:40;3.90;;;1.30;;
74967;SDS011;63523;51.880;12.630;2023-05-10T05:35:05;7.40;;;1.40;;
74967;SDS011;63523;51.880;12.630;2023-05-10T05:37:31;3.88;;;1.50;;
74967;SDS011;63523;51.880;12.630;2023-05-10T05:39:56;3.77;;;1.30;;
74967;SDS011;63523;51.880;12.630;2023-05-10T05:42:21;4.33;;;1.20;;
74967;SDS011;63523;51.880;12.630;2023-05-10T05:44:47;7.60;;;1.73;;
74967;SDS011;63523;51.880;12.630;2023-05-10T05:47:12;7.90;;;1.63;;
74967;SDS011;63523;51.880;12.630;2023-05-10T05:49:37;4.00;;;1.30;;
74967;SDS011;63523;51.880;12.630;2023-05-10T05:52:03;4.40;;;1.50;;
74967;SDS011;63523;51.880;12.630;2023-05-10T05:54:29;5.50;;;1.40;;
74967;SDS011;63523;51.880;12.630;2023-05-10T05:56:58;3.97;;;1.20;;
74967;SDS011;63523;51.880;12.630;2023-05-10T05:59:24;3.85;;;1.33;;
74967;SDS011;63523;51.880;12.630;2023-05-10T06:01:50;4.17;;;1.40;;
74967;SDS011;63523;51.880;12.630;2023-05-10T06:04:15;4.32;;;1.38;;
74967;SDS011;63523;51.880;12.630;2023-05-10T06:06:42;3.77;;;1.40;;
74967;SDS011;63523;51.880;12.630;2023-05-10T06:09:08;5.30;;;1.80;;
74967;SDS011;63523;51.880;12.630;2023-05-10T06:11:34;3.88;;;1.38;;
74967;SDS011;63523;51.880;12.630;2023-05-10T06:14:00;4.03;;;1.20;;
74967;SDS011;63523;51.880;12.630;2023-05-10T06:16:26;4.93;;;1.60;;
74967;SDS011;63523;51.880;12.630;2023-05-10T06:18:52;3.57;;;1.00;;
74967;SDS011;63523;51.880;12.630;2023-05-10T06:21:17;3.93;;;1.13;;
74967;SDS011;63523;51.880;12.630;2023-05-10T06:23:42;3.00;;;0.93;;
74967;SDS011;63523;51.880;12.630;2023-05-10T06:26:08;3.92;;;1.15;;
74967;SDS011;63523;51.880;12.630;2023-05-10T06:28:34;4.78;;;1.10;;
74967;SDS011;63523;51.880;12.630;2023-05-10T06:30:59;3.93;;;1.33;;
74967;SDS011;63523;51.880;12.630;2023-05-10T06:33:25;5.33;;;1.40;;
74967;SDS011;63523;51.880;12.630;2023-05-10T06:35:50;4.57;;;1.27;;
74967;SDS011;63523;51.880;12.630;2023-05-10T06:38:16;3.50;;;1.30;;
74967;SDS011;63523;51.880;12.630;2023-05-10T06:40:41;4.17;;;1.23;;
74967;SDS011;63523;51.880;12.630;2023-05-10T06:43:07;3.67;;;1.42;;
74967;SDS011;63523;51.880;12.630;2023-05-10T06:45:32;3.63;;;1.43;;
74967;SDS011;63523;51.880;12.630;2023-05-10T06:47:57;4.73;;;1.30;;
74967;SDS011;63523;51.880;12.630;2023-05-10T06:50:23;3.53;;;1.30;;
74967;SDS011;63523;51.880;12.630;2023-05-10T06:52:48;4.03;;;1.37;;
74967;SDS011;63523;51.880;12.630;2023-05-10T06:55:13;4.60;;;1.73;;
74967;SDS011;63523;51.880;12.630;2023-05-10T06:57:38;5.07;;;1.60;;
74967;SDS011;63523;51.880;12.630;2023-05-10T07:00:04;5.23;;;1.57;;
74967;SDS011;63523;51.880;12.630;2023-05-10T07:02:30;5.10;;;1.70;;
74967;SDS011;63523;51.880;12.630;2023-05-10T07:04:55;7.17;;;1.60;;
74967;SDS011;63523;51.880;12.630;2023-05-10T07:07:21;4.40;;;1.50;;
74967;SDS011;63523;51.880;12.630;2023-05-10T07:09:46;5.37;;;1.60;;
74967;SDS011;63523;51.880;12.630;2023-05-10T07:12:11;3.40;;;1.17;;
74967;SDS011;63523;51.880;12.630;2023-05-10T07:14:37;5.13;;;2.10;;
74967;SDS011;63523;51.880;12.630;2023-05-10T07:17:02;4.37;;;1.60;;
74967;SDS011;63523;51.880;12.630;2023-05-10T07:19:27;5.67;;;2.00;;
74967;SDS011;63523;51.880;12.630;2023-05-10T07:21:54;5.35;;;2.25;;
74967;SDS011;63523;51.880;12.630;2023-05-10T07:24:20;4.93;;;1.87;;
74967;SDS011;63523;51.880;12.630;2023-05-10T07:26:45;4.70;;;2.10;;
74967;SDS011;63523;51.880;12.630;2023-05-10T07:29:10;4.63;;;2.00;;
74967;SDS011;63523;51.880;12.630;2023-05-10T07:31:36;6.53;;;2.20;;
74967;SDS011;63523;51.880;12.630;2023-05-10T07:34:01;5.27;;;2.00;;
74967;SDS011;63523;51.880;12.630;2023-05-10T07:36:26;6.80;;;2.83;;
74967;SDS011;63523;51.880;12.630;2023-05-10T07:38:51;5.17;;;2.00;;
74967;SDS011;63523;51.880;12.630;2023-05-10T07:41:17;6.17;;;2.00;;
74967;SDS011;63523;51.880;12.630;2023-05-10T07:43:42;5.83;;;2.10;;
74967;SDS011;63523;51.880;12.630;2023-05-10T07:46:07;6.20;;;1.90;;
74967;SDS011;63523;51.880;12.630;2023-05-10T07:48:34;5.05;;;2.35;;
74967;SDS011;63523;51.880;12.630;2023-05-10T07:51:00;4.33;;;1.90;;
74967;SDS011;63523;51.880;12.630;2023-05-10T07:53:25;5.97;;;2.17;;
74967;SDS011;63523;51.880;12.630;2023-05-10T07:55:51;4.57;;;2.00;;
74967;SDS011;63523;51.880;12.630;2023-05-10T07:58:21;5.25;;;2.30;;
74967;SDS011;63523;51.880;12.630;2023-05-10T08:00:47;5.90;;;2.13;;
74967;SDS011;63523;51.880;12.630;2023-05-10T08:03:13;6.80;;;2.07;;
74967;SDS011;63523;51.880;12.630;2023-05-10T08:05:38;5.93;;;1.97;;
74967;SDS011;63523;51.880;12.630;2023-05-10T08:08:04;5.17;;;2.30;;
74967;SDS011;63523;51.880;12.630;2023-05-10T08:10:29;7.25;;;2.55;;
74967;SDS011;63523;51.880;12.630;2023-05-10T08:12:54;5.70;;;2.00;;
74967;SDS011;63523;51.880;12.630;2023-05-10T08:15:20;7.23;;;2.30;;
74967;SDS011;63523;51.880;12.630;2023-05-10T08:17:45;6.07;;;2.00;;
74967;SDS011;63523;51.880;12.630;2023-05-10T08:20:10;7.57;;;2.20;;
74967;SDS011;63523;51.880;12.630;2023-05-10T08:22:37;10.90;;;2.45;;
74967;SDS011;63523;51.880;12.630;2023-05-10T08:25:03;9.67;;;2.40;;
74967;SDS011;63523;51.880;12.630;2023-05-10T08:27:28;5.17;;;2.33;;
74967;SDS011;63523;51.880;12.630;2023-05-10T08:29:53;6.47;;;2.60;;
74967;SDS011;63523;51.880;12.630;2023-05-10T08:32:18;7.10;;;2.50;;
74967;SDS011;63523;51.880;12.630;2023-05-10T08:34:44;6.57;;;2.37;;
74967;SDS011;63523;51.880;12.630;2023-05-10T08:37:09;5.73;;;2.50;;
74967;SDS011;63523;51.880;12.630;2023-05-10T08:39:37;4.90;;;2.10;;
74967;SDS011;63523;51.880;12.630;2023-05-10T08:42:04;5.70;;;2.83;;
74967;SDS011;63523;51.880;12.630;2023-05-10T08:44:32;6.37;;;2.23;;
74967;SDS011;63523;51.880;12.630;2023-05-10T08:47:01;5.15;;;2.30;;
74967;SDS011;63523;51.880;12.630;2023-05-10T08:49:29;5.07;;;2.50;;
74967;SDS011;63523;51.880;12.630;2023-05-10T08:51:56;5.03;;;2.22;;
74967;SDS011;63523;51.880;12.630;2023-05-10T08:54:22;6.43;;;2.50;;
74967;SDS011;63523;51.880;12.630;2023-05-10T08:56:48;4.40;;;2.03;;
74967;SDS011;63523;51.880;12.630;2023-05-10T08:59:13;4.60;;;2.13;;
74967;SDS011;63523;51.880;12.630;2023-05-10T09:01:39;5.03;;;2.72;;
74967;SDS011;63523;51.880;12.630;2023-05-10T09:04:07;4.70;;;2.23;;
74967;SDS011;63523;51.880;12.630;2023-05-10T09:06:32;6.03;;;2.30;;
74967;SDS011;63523;51.880;12.630;2023-05-10T09:08:58;6.63;;;2.23;;
74967;SDS011;63523;51.880;12.630;2023-05-10T09:11:23;4.47;;;2.07;;
74967;SDS011;63523;51.880;12.630;2023-05-10T09:13:49;5.30;;;2.45;;
74967;SDS011;63523;51.880;12.630;2023-05-10T09:16:16;6.93;;;2.47;;
74967;SDS011;63523;51.880;12.630;2023-05-10T09:18:41;6.90;;;3.20;;
74967;SDS011;63523;51.880;12.630;2023-05-10T09:21:06;5.00;;;2.57;;
74967;SDS011;63523;51.880;12.630;2023-05-10T09:23:33;5.50;;;2.80;;
74967;SDS011;63523;51.880;12.630;2023-05-10T09:26:01;7.93;;;2.90;;
74967;SDS011;63523;51.880;12.630;2023-05-10T09:28:34;5.13;;;2.80;;
74967;SDS011;63523;51.880;12.630;2023-05-10T09:31:14;4.85;;;2.70;;
74967;SDS011;63523;51.880;12.630;2023-05-10T09:33:46;6.27;;;2.83;;
74967;SDS011;63523;51.880;12.630;2023-05-10T09:36:12;5.25;;;2.45;;
74967;SDS011;63523;51.880;12.630;2023-05-10T09:38:48;5.20;;;2.60;;
74967;SDS011;63523;51.880;12.630;2023-05-10T09:41:21;5.10;;;2.55;;
74967;SDS011;63523;51.880;12.630;2023-05-10T09:43:47;5.50;;;2.60;;
74967;SDS011;63523;51.880;12.630;2023-05-10T09:46:13;5.07;;;2.63;;
74967;SDS011;63523;51.880;12.630;2023-05-10T09:48:43;6.03;;;2.63;;
74967;SDS011;63523;51.880;12.630;2023-05-10T09:51:09;5.40;;;2.70;;
74967;SDS011;63523;51.880;12.630;2023-05-10T09:53:35;5.20;;;2.70;;
74967;SDS011;63523;51.880;12.630;2023-05-10T09:56:00;5.40;;;3.10;;
74967;SDS011;63523;51.880;12.630;2023-05-10T09:58:25;5.10;;;2.60;;
74967;SDS011;63523;51.880;12.630;2023-05-10T10:00:51;8.30;;;3.00;;
74967;SDS011;63523;51.880;12.630;2023-05-10T10:03:18;6.63;;;2.60;;
74967;SDS011;63523;51.880;12.630;2023-05-10T10:05:44;5.07;;;2.90;;
74967;SDS011;63523;51.880;12.630;2023-05-10T10:08:11;4.80;;;2.50;;
74967;SDS011;63523;51.880;12.630;2023-05-10T10:10:37;4.93;;;2.60;;
74967;SDS011;63523;51.880;12.630;2023-05-10T10:13:05;4.88;;;2.28;;
74967;SDS011;63523;51.880;12.630;2023-05-10T10:15:30;4.53;;;2.50;;
74967;SDS011;63523;51.880;12.630;2023-05-10T10:17:57;7.47;;;2.42;;
74967;SDS011;63523;51.880;12.630;2023-05-10T10:20:24;4.63;;;2.28;;
74967;SDS011;63523;51.880;12.630;2023-05-10T10:22:50;5.57;;;2.57;;
74967;SDS011;63523;51.880;12.630;2023-05-10T10:25:16;8.83;;;2.90;;
74967;SDS011;63523;51.880;12.630;2023-05-10T10:27:54;4.10;;;2.30;;
74967;SDS011;63523;51.880;12.630;2023-05-10T10:30:43;5.03;;;2.53;;
74967;SDS011;63523;51.880;12.630;2023-05-10T10:36:01;6.15;;;2.80;;
74967;SDS011;63523;51.880;12.630;2023-05-10T10:41:27;6.00;;;3.00;;
74967;SDS011;63523;51.880;12.630;2023-05-10T10:52:14;6.50;;;3.03;;
74967;SDS011;63523;51.880;12.630;2023-05-10T10:57:32;6.63;;;2.90;;
74967;SDS011;63523;51.880;12.630;2023-05-10T11:03:10;6.32;;;2.97;;
74967;SDS011;63523;51.880;12.630;2023-05-10T11:08:15;5.30;;;3.13;;
74967;SDS011;63523;51.880;12.630;2023-05-10T11:13:34;7.20;;;3.10;;
74967;SDS011;63523;51.880;12.630;2023-05-10T11:16:10;5.18;;;2.92;;
74967;SDS011;63523;51.880;12.630;2023-05-10T11:18:36;6.10;;;3.00;;
74967;SDS011;63523;51.880;12.630;2023-05-10T11:21:02;6.67;;;3.30;;
74967;SDS011;63523;51.880;12.630;2023-05-10T11:26:06;5.78;;;3.30;;
74967;SDS011;63523;51.880;12.630;2023-05-10T11:28:34;5.38;;;3.22;;
74967;SDS011;63523;51.880;12.630;2023-05-10T11:31:06;6.85;;;3.40;;
74967;SDS011;63523;51.880;12.630;2023-05-10T11:33:31;7.07;;;2.90;;
74967;SDS011;63523;51.880;12.630;2023-05-10T11:36:10;4.90;;;2.60;;
74967;SDS011;63523;51.880;12.630;2023-05-10T11:38:36;6.33;;;2.93;;
74967;SDS011;63523;51.880;12.630;2023-05-10T11:41:02;5.50;;;3.00;;
74967;SDS011;63523;51.880;12.630;2023-05-10T11:43:27;5.63;;;2.70;;
74967;SDS011;63523;51.880;12.630;2023-05-10T11:45:55;6.27;;;2.57;;
74967;SDS011;63523;51.880;12.630;2023-05-10T11:48:20;5.75;;;2.80;;
74967;SDS011;63523;51.880;12.630;2023-05-10T11:50:48;5.47;;;2.95;;
74967;SDS011;63523;51.880;12.630;2023-05-10T11:53:14;5.23;;;2.60;;
74967;SDS011;63523;51.880;12.630;2023-05-10T11:55:39;6.00;;;2.50;;
74967;SDS011;63523;51.880;12.630;2023-05-10T11:58:04;5.63;;;2.63;;
74967;SDS011;63523;51.880;12.630;2023-05-10T12:00:30;4.90;;;2.53;;
74967;SDS011;63523;51.880;12.630;2023-05-10T12:02:56;5.25;;;2.97;;
74967;SDS011;63523;51.880;12.630;2023-05-10T12:05:21;6.27;;;2.60;;
74967;SDS011;63523;51.880;12.630;2023-05-10T12:07:47;4.53;;;2.37;;
74967;SDS011;63523;51.880;12.630;2023-05-10T12:10:13;5.17;;;2.50;;
74967;SDS011;63523;51.880;12.630;2023-05-10T12:12:45;4.43;;;2.37;;
74967;SDS011;63523;51.880;12.630;2023-05-10T12:15:16;5.50;;;2.33;;
74967;SDS011;63523;51.880;12.630;2023-05-10T12:17:44;6.25;;;3.00;;
74967;SDS011;63523;51.880;12.630;2023-05-10T12:20:27;5.28;;;2.90;;
74967;SDS011;63523;51.880;12.630;2023-05-10T12:22:54;4.60;;;2.67;;
74967;SDS011;63523;51.880;12.630;2023-05-10T12:25:21;5.77;;;2.63;;
74967;SDS011;63523;51.880;12.630;2023-05-10T12:27:52;4.68;;;2.65;;
74967;SDS011;63523;51.880;12.630;2023-05-10T12:30:20;4.82;;;2.42;;
74967;SDS011;63523;51.880;12.630;2023-05-10T12:32:47;5.78;;;2.72;;
74967;SDS011;63523;51.880;12.630;2023-05-10T12:35:12;5.67;;;2.70;;
74967;SDS011;63523;51.880;12.630;2023-05-10T12:37:37;6.50;;;2.70;;
74967;SDS011;63523;51.880;12.630;2023-05-10T12:40:06;4.43;;;2.45;;
74967;SDS011;63523;51.880;12.630;2023-05-10T12:42:33;4.65;;;2.40;;
74967;SDS011;63523;51.880;12.630;2023-05-10T12:45:00;4.88;;;2.70;;
74967;SDS011;63523;51.880;12.630;2023-05-10T12:47:25;4.67;;;2.50;;
74967;SDS011;63523;51.880;12.630;2023-05-10T12:49:51;6.23;;;2.70;;
74967;SDS011;63523;51.880;12.630;2023-05-10T12:52:16;6.27;;;2.83;;
74967;SDS011;63523;51.880;12.630;2023-05-10T12:54:41;6.33;;;2.67;;
74967;SDS011;63523;51.880;12.630;2023-05-10T12:57:07;4.90;;;2.33;;
74967;SDS011;63523;51.880;12.630;2023-05-10T12:59:32;5.37;;;1.80;;
74967;SDS011;63523;51.880;12.630;2023-05-10T13:01:57;3.33;;;1.30;;
74967;SDS011;63523;51.880;12.630;2023-05-10T13:04:23;3.80;;;1.40;;
74967;SDS011;63523;51.880;12.630;2023-05-10T13:06:48;3.60;;;1.10;;
74967;SDS011;63523;51.880;12.630;2023-05-10T13:09:13;3.40;;;1.30;;
74967;SDS011;63523;51.880;12.630;2023-05-10T13:11:39;3.17;;;1.20;;
74967;SDS011;63523;51.880;12.630;2023-05-10T13:14:04;2.57;;;0.93;;
74967;SDS011;63523;51.880;12.630;2023-05-10T13:16:30;2.70;;;0.95;;
74967;SDS011;63523;51.880;12.630;2023-05-10T13:18:56;3.00;;;0.97;;
74967;SDS011;63523;51.880;12.630;2023-05-10T13:21:21;3.47;;;1.30;;
74967;SDS011;63523;51.880;12.630;2023-05-10T13:23:46;3.17;;;1.17;;
74967;SDS011;63523;51.880;12.630;2023-05-10T13:26:11;3.60;;;1.40;;
74967;SDS011;63523;51.880;12.630;2023-05-10T13:28:37;3.27;;;1.40;;
74967;SDS011;63523;51.880;12.630;2023-05-10T13:31:03;2.90;;;1.30;;
74967;SDS011;63523;51.880;12.630;2023-05-10T13:33:29;3.97;;;1.47;;
74967;SDS011;63523;51.880;12.630;2023-05-10T13:35:55;3.53;;;1.30;;
74967;SDS011;63523;51.880;12.630;2023-05-10T13:38:20;3.53;;;1.13;;
74967;SDS011;63523;51.880;12.630;2023-05-10T13:40:45;3.30;;;1.30;;
74967;SDS011;63523;51.880;12.630;2023-05-10T13:43:10;6.50;;;1.60;;
74967;SDS011;63523;51.880;12.630;2023-05-10T13:45:36;3.33;;;1.53;;
74967;SDS011;63523;51.880;12.630;2023-05-10T13:48:01;4.37;;;1.20;;
74967;SDS011;63523;51.880;12.630;2023-05-10T13:50:26;3.60;;;1.13;;
74967;SDS011;63523;51.880;12.630;2023-05-10T13:52:52;4.13;;;1.27;;
74967;SDS011;63523;51.880;12.630;2023-05-10T13:55:17;4.67;;;1.67;;
74967;SDS011;63523;51.880;12.630;2023-05-10T13:57:42;5.77;;;1.90;;
74967;SDS011;63523;51.880;12.630;2023-05-10T14:00:08;4.10;;;1.43;;
74967;SDS011;63523;51.880;12.630;2023-05-10T14:02:34;4.07;;;1.40;;
74967;SDS011;63523;51.880;12.630;2023-05-10T14:04:59;4.43;;;1.57;;
74967;SDS011;63523;51.880;12.630;2023-05-10T14:07:25;4.33;;;1.63;;
74967;SDS011;63523;51.880;12.630;2023-05-10T14:09:50;3.65;;;1.70;;
74967;SDS011;63523;51.880;12.630;2023-05-10T14:12:16;4.43;;;1.83;;
74967;SDS011;63523;51.880;12.630;2023-05-10T14:14:41;3.70;;;1.55;;
74967;SDS011;63523;51.880;12.630;2023-05-10T14:17:07;3.50;;;1.70;;
74967;SDS011;63523;51.880;12.630;2023-05-10T14:19:32;5.33;;;1.67;;
74967;SDS011;63523;51.880;12.630;2023-05-10T14:21:59;4.45;;;1.75;;
74967;SDS011;63523;51.880;12.630;2023-05-10T14:24:24;5.27;;;1.77;;
74967;SDS011;63523;51.880;12.630;2023-05-10T14:26:49;4.40;;;1.83;;
74967;SDS011;63523;51.880;12.630;2023-05-10T14:29:18;4.40;;;1.50;;
74967;SDS011;63523;51.880;12.630;2023-05-10T14:31:43;4.33;;;1.53;;
74967;SDS011;63523;51.880;12.630;2023-05-10T14:34:09;4.40;;;1.40;;
74967;SDS011;63523;51.880;12.630;2023-05-10T14:36:34;3.60;;;1.60;;
74967;SDS011;63523;51.880;12.630;2023-05-10T14:38:59;3.77;;;1.53;;
74967;SDS011;63523;51.880;12.630;2023-05-10T14:41:25;4.20;;;1.50;;
74967;SDS011;63523;51.880;12.630;2023-05-10T14:43:50;4.07;;;1.73;;
74967;SDS011;63523;51.880;12.630;2023-05-10T14:46:15;3.27;;;1.30;;
74967;SDS011;63523;51.880;12.630;2023-05-10T14:48:40;3.63;;;1.33;;
74967;SDS011;63523;51.880;12.630;2023-05-10T14:51:06;3.40;;;1.30;;
74967;SDS011;63523;51.880;12.630;2023-05-10T14:53:31;3.50;;;1.00;;
74967;SDS011;63523;51.880;12.630;2023-05-10T14:55:57;3.80;;;1.20;;
74967;SDS011;63523;51.880;12.630;2023-05-10T14:58:23;2.87;;;1.00;;
74967;SDS011;63523;51.880;12.630;2023-05-10T15:00:48;3.53;;;1.50;;
74967;SDS011;63523;51.880;12.630;2023-05-10T15:03:13;3.30;;;1.40;;
74967;SDS011;63523;51.880;12.630;2023-05-10T15:05:38;5.03;;;1.90;;
74967;SDS011;63523;51.880;12.630;2023-05-10T15:08:04;3.77;;;1.30;;
74967;SDS011;63523;51.880;12.630;2023-05-10T15:10:30;4.00;;;1.80;;
74967;SDS011;63523;51.880;12.630;2023-05-10T15:12:57;4.53;;;1.63;;
74967;SDS011;63523;51.880;12.630;2023-05-10T15:15:23;3.88;;;1.60;;
74967;SDS011;63523;51.880;12.630;2023-05-10T15:17:49;4.15;;;1.77;;
74967;SDS011;63523;51.880;12.630;2023-05-10T15:20:14;4.10;;;1.60;;